createdAt,value
2023-04-30T00:02:56.065Z,13.28
2023-04-30T00:07:59.469Z,13.23
2023-04-30T00:13:02.762Z,13.23
2023-04-30T00:18:07.285Z,13.22
2023-04-30T00:23:10.591Z,13.16
2023-04-30T00:28:13.937Z,13.15
2023-04-30T00:33:17.146Z,13.18
2023-04-30T00:38:20.758Z,13.18
2023-04-30T00:43:24.135Z,13.13
2023-04-30T00:48:27.984Z,13.08
2023-04-30T00:53:32.283Z,13.06
2023-04-30T00:58:35.811Z,13.04
2023-04-30T01:03:39.893Z,13.08
2023-04-30T01:08:44.382Z,13.14
2023-04-30T01:14:12.543Z,13.19
2023-04-30T01:19:36.987Z,13.23
2023-04-30T01:24:55.144Z,13.22
2023-04-30T01:30:03.805Z,13.23
2023-04-30T01:35:07.390Z,13.19
2023-04-30T01:40:46.036Z,13.15
2023-04-30T01:46:04.798Z,13.13
2023-04-30T01:51:27.752Z,13.10
2023-04-30T01:56:44.518Z,13.11
2023-04-30T02:01:48.644Z,13.06
2023-04-30T02:06:52.359Z,13.01
2023-04-30T02:11:57.963Z,13.00
2023-04-30T02:17:01.345Z,13.02
2023-04-30T02:22:10.448Z,13.04
2023-04-30T02:27:14.582Z,12.97
2023-04-30T02:32:22.002Z,12.88
2023-04-30T02:37:25.766Z,12.82
2023-04-30T02:42:29.088Z,12.75
2023-04-30T02:47:32.275Z,12.64
2023-04-30T02:52:35.555Z,12.58
2023-04-30T02:57:39.154Z,12.53
2023-04-30T03:02:42.384Z,12.49
2023-04-30T03:07:45.942Z,12.45
2023-04-30T03:12:51.720Z,12.44
2023-04-30T03:17:55.014Z,12.39
2023-04-30T03:22:58.310Z,12.35
2023-04-30T03:28:01.896Z,12.32
2023-04-30T03:33:08.142Z,12.32
2023-04-30T03:38:11.725Z,12.30
2023-04-30T03:43:15.261Z,12.21
2023-04-30T03:48:18.621Z,12.03
2023-04-30T03:53:22.219Z,11.79
2023-04-30T03:58:25.859Z,11.57
2023-04-30T04:03:29.180Z,11.43
2023-04-30T04:08:32.983Z,11.36
2023-04-30T04:13:36.393Z,11.33
2023-04-30T04:18:39.671Z,11.30
2023-04-30T04:23:42.956Z,11.29
2023-04-30T04:28:47.804Z,11.25
2023-04-30T04:33:58.247Z,11.16
2023-04-30T04:39:02.451Z,11.13
2023-04-30T04:44:08.785Z,11.18
2023-04-30T04:49:12.819Z,11.21
2023-04-30T04:54:16.451Z,11.18
2023-04-30T04:59:19.830Z,11.15
2023-04-30T05:04:43.475Z,11.15
2023-04-30T05:09:47.262Z,11.18
2023-04-30T05:14:51.465Z,11.19
2023-04-30T05:19:55.186Z,11.21
2023-04-30T05:24:58.809Z,11.17
2023-04-30T05:30:02.587Z,11.16
2023-04-30T05:35:06.163Z,11.21
2023-04-30T05:40:30.173Z,11.30
2023-04-30T05:45:33.773Z,11.31
2023-04-30T05:50:39.144Z,11.33
2023-04-30T05:55:42.921Z,11.42
2023-04-30T06:00:51.038Z,11.46
2023-04-30T06:05:54.623Z,11.55
2023-04-30T06:10:57.893Z,11.65
2023-04-30T06:16:01.268Z,11.65
2023-04-30T06:21:04.603Z,11.70
2023-04-30T06:26:08.103Z,12.29
2023-04-30T06:31:11.617Z,12.67
2023-04-30T06:36:14.995Z,12.87
2023-04-30T06:41:18.368Z,13.16
2023-04-30T06:46:21.677Z,13.51
2023-04-30T06:51:28.079Z,13.86
2023-04-30T06:56:34.125Z,14.17
2023-04-30T07:01:37.549Z,14.40
2023-04-30T07:06:41.145Z,14.41
2023-04-30T07:11:45.419Z,14.38
2023-04-30T07:16:51.533Z,14.43
2023-04-30T07:21:54.688Z,14.60
2023-04-30T07:27:05.500Z,14.52
2023-04-30T07:32:09.074Z,14.28
2023-04-30T07:37:12.597Z,14.31
2023-04-30T07:42:16.370Z,14.31
2023-04-30T07:47:20.114Z,14.32
2023-04-30T07:52:23.453Z,14.30
2023-04-30T07:57:27.223Z,14.32
2023-04-30T08:02:30.985Z,14.30
2023-04-30T08:07:34.598Z,14.36
2023-04-30T08:12:37.903Z,14.51
2023-04-30T08:17:41.236Z,14.64
2023-04-30T08:22:45.755Z,14.71
2023-04-30T08:27:49.107Z,14.49
2023-04-30T08:32:53.271Z,14.63
2023-04-30T08:37:57.500Z,14.54
2023-04-30T08:43:06.119Z,14.38
2023-04-30T08:48:14.115Z,14.39
2023-04-30T08:53:18.005Z,14.28
2023-04-30T08:58:21.363Z,14.20
2023-04-30T09:03:25.241Z,14.30
2023-04-30T09:08:49.083Z,14.32
2023-04-30T09:13:54.376Z,14.32
2023-04-30T09:18:57.826Z,14.31
2023-04-30T09:24:05.624Z,14.31
2023-04-30T09:29:10.389Z,14.40
2023-04-30T09:34:14.269Z,14.47
2023-04-30T09:39:18.345Z,14.48
2023-04-30T09:44:29.292Z,14.46
2023-04-30T09:49:32.639Z,14.38
2023-04-30T09:54:47.353Z,14.45
2023-04-30T09:59:53.873Z,14.62
2023-04-30T10:05:46.765Z,14.68
2023-04-30T10:11:07.581Z,14.64
2023-04-30T10:16:20.072Z,14.60
2023-04-30T10:21:25.203Z,14.68
2023-04-30T10:26:30.294Z,14.78
2023-04-30T10:31:34.892Z,14.83
2023-04-30T10:36:55.120Z,14.74
2023-04-30T10:42:10.163Z,14.64
2023-04-30T10:47:13.563Z,14.65
2023-04-30T10:52:27.917Z,14.68
2023-04-30T10:57:31.653Z,14.76
2023-04-30T11:02:47.459Z,14.75
2023-04-30T11:07:58.710Z,14.71
2023-04-30T11:13:07.894Z,14.75
2023-04-30T11:18:13.803Z,14.78
2023-04-30T11:23:25.238Z,14.90
2023-04-30T11:28:37.946Z,15.00
2023-04-30T11:33:41.526Z,14.96
2023-04-30T11:38:45.859Z,14.97
2023-04-30T11:43:49.139Z,15.02
2023-04-30T11:48:52.883Z,15.09
2023-04-30T11:53:56.206Z,15.13
2023-04-30T11:58:59.531Z,15.11
2023-04-30T12:04:06.521Z,15.03
2023-04-30T12:09:11.784Z,15.05
2023-04-30T12:14:15.416Z,15.11
2023-04-30T12:19:21.019Z,15.09
2023-04-30T12:24:27.449Z,15.14
2023-04-30T12:29:30.878Z,15.21
2023-04-30T12:34:34.154Z,15.28
2023-04-30T12:39:37.524Z,15.32
2023-04-30T12:44:45.091Z,15.32
2023-04-30T12:49:48.274Z,15.41
2023-04-30T12:54:52.340Z,15.35
2023-04-30T12:59:55.785Z,15.49
2023-04-30T13:05:00.026Z,15.64
2023-04-30T13:10:03.381Z,15.67
2023-04-30T13:15:07.378Z,15.76
2023-04-30T13:20:11.193Z,15.74
2023-04-30T13:25:14.508Z,15.78
2023-04-30T13:30:18.032Z,15.63
2023-04-30T13:35:21.500Z,15.59
2023-04-30T13:40:24.878Z,15.67
2023-04-30T13:45:28.308Z,15.77
2023-04-30T13:50:31.569Z,15.77
2023-04-30T13:55:34.988Z,15.83
2023-04-30T14:00:38.930Z,15.88
2023-04-30T14:05:42.310Z,15.94
2023-04-30T14:10:45.690Z,15.91
2023-04-30T14:15:48.946Z,15.80
2023-04-30T14:20:52.390Z,15.65
2023-04-30T14:25:55.673Z,15.66
2023-04-30T14:30:59.120Z,15.57
2023-04-30T14:36:02.675Z,15.58
2023-04-30T14:41:16.512Z,15.67
2023-04-30T14:46:20.077Z,15.65
2023-04-30T14:51:25.934Z,15.65
2023-04-30T14:56:29.269Z,15.61
2023-04-30T15:01:32.865Z,15.57
2023-04-30T15:06:50.315Z,15.55
2023-04-30T15:11:56.384Z,15.51
2023-04-30T15:16:59.791Z,15.48
2023-04-30T15:22:03.138Z,15.50
2023-04-30T15:27:06.420Z,15.53
2023-04-30T15:32:09.833Z,15.48
2023-04-30T15:37:13.078Z,15.46
2023-04-30T15:42:16.375Z,15.41
2023-04-30T15:47:19.980Z,15.35
2023-04-30T15:52:24.666Z,15.32
2023-04-30T15:57:27.884Z,15.31
2023-04-30T16:02:31.924Z,15.28
2023-04-30T16:07:35.809Z,15.25
2023-04-30T16:12:39.466Z,15.25
2023-04-30T16:17:42.676Z,15.17
2023-04-30T16:22:46.115Z,15.10
2023-04-30T16:27:50.022Z,15.01
2023-04-30T16:32:53.361Z,14.95
2023-04-30T16:37:56.883Z,14.90
2023-04-30T16:43:00.726Z,14.83
2023-04-30T16:48:04.344Z,14.73
2023-04-30T16:53:09.753Z,14.66
2023-04-30T16:58:14.249Z,14.59
2023-04-30T17:03:17.589Z,14.49
2023-04-30T17:08:21.417Z,14.41
2023-04-30T17:13:24.651Z,14.32
2023-04-30T17:18:27.874Z,14.22
2023-04-30T17:23:32.021Z,14.11
2023-04-30T17:28:35.704Z,13.98
2023-04-30T17:33:39.943Z,13.89
2023-04-30T17:38:44.012Z,13.79
2023-04-30T17:43:47.355Z,13.67
2023-04-30T17:48:50.767Z,13.54
2023-04-30T17:53:54.081Z,13.43
2023-04-30T17:58:58.252Z,13.33
2023-04-30T18:04:08.099Z,13.22
2023-04-30T18:09:16.477Z,13.12
2023-04-30T18:14:19.928Z,12.96
2023-04-30T18:19:23.463Z,12.73
2023-04-30T18:24:28.629Z,12.55
2023-04-30T18:29:31.897Z,12.36
2023-04-30T18:34:38.492Z,12.11
2023-04-30T18:39:44.420Z,11.94
2023-04-30T18:44:48.433Z,11.79
2023-04-30T18:49:54.380Z,11.63
2023-04-30T18:54:57.940Z,11.44
2023-04-30T19:00:04.624Z,11.36
2023-04-30T19:05:07.922Z,11.21
2023-04-30T19:11:04.502Z,11.06
2023-04-30T19:16:52.530Z,10.95
2023-04-30T19:21:56.059Z,10.85
2023-04-30T19:27:04.116Z,10.68
2023-04-30T19:32:07.887Z,10.58
2023-04-30T19:37:11.218Z,10.51
2023-04-30T19:42:42.443Z,10.38
2023-04-30T19:47:55.379Z,10.17
2023-04-30T19:53:10.360Z,10.03
2023-04-30T19:58:13.944Z,9.88
2023-04-30T20:03:36.127Z,9.76
2023-04-30T20:08:39.414Z,9.68
2023-04-30T20:13:42.715Z,9.59
2023-04-30T20:18:46.497Z,9.53
2023-04-30T20:23:49.762Z,9.45
2023-04-30T20:28:53.770Z,9.33
2023-04-30T20:33:57.330Z,9.17
2023-04-30T20:39:00.653Z,9.00
2023-04-30T20:44:06.930Z,8.93
2023-04-30T20:49:22.619Z,8.81
2023-04-30T20:54:44.024Z,8.68
2023-04-30T20:59:47.318Z,8.53
2023-04-30T21:04:50.704Z,8.39
2023-04-30T21:10:08.361Z,8.30
2023-04-30T21:15:14.552Z,8.23
2023-04-30T21:20:18.194Z,8.11
2023-04-30T21:25:22.228Z,8.12
2023-04-30T21:30:26.624Z,8.01
2023-04-30T21:35:33.191Z,7.96
2023-04-30T21:40:36.415Z,7.83
2023-04-30T21:45:41.489Z,7.87
2023-04-30T21:50:47.765Z,8.03
2023-04-30T21:55:52.563Z,7.93
2023-04-30T22:00:56.244Z,7.85
2023-04-30T22:06:00.179Z,7.75
2023-04-30T22:11:04.836Z,7.65
2023-04-30T22:16:08.588Z,7.61
2023-04-30T22:21:12.039Z,7.52
2023-04-30T22:26:46.709Z,7.50
2023-04-30T22:31:50.259Z,7.41
2023-04-30T22:36:53.576Z,7.36
2023-04-30T22:41:59.188Z,7.33
2023-04-30T22:47:03.414Z,7.27
2023-04-30T22:52:17.348Z,7.28
2023-04-30T22:57:22.510Z,7.28
2023-04-30T23:02:26.561Z,7.27
2023-04-30T23:07:29.903Z,7.21
2023-04-30T23:12:33.390Z,7.14
2023-04-30T23:17:39.699Z,7.16
2023-04-30T23:22:46.111Z,7.18
2023-04-30T23:27:49.436Z,7.23
2023-04-30T23:32:53.056Z,7.23
2023-04-30T23:37:56.798Z,7.23
2023-04-30T23:43:20.680Z,7.21
2023-04-30T23:48:26.468Z,7.24
2023-04-30T23:53:29.978Z,7.26
2023-04-30T23:58:33.339Z,7.23
